createdAt,value
2023-04-12T00:00:33.324Z,98961.69
2023-04-12T00:03:03.333Z,98968.41
2023-04-12T00:05:31.902Z,98954.00
2023-04-12T00:08:02.512Z,98960.16
2023-04-12T00:10:30.907Z,98956.34
2023-04-12T00:13:00.639Z,98958.69
2023-04-12T00:15:29.485Z,98953.22
2023-04-12T00:17:57.911Z,98958.19
2023-04-12T00:20:27.375Z,98962.75
2023-04-12T00:22:57.848Z,98954.81
2023-04-12T00:25:26.907Z,98950.13
2023-04-12T00:27:55.265Z,98951.44
2023-04-12T00:30:25.148Z,98961.13
2023-04-12T00:32:53.699Z,98945.88
2023-04-12T00:35:22.043Z,98958.31
2023-04-12T00:37:52.456Z,98952.84
2023-04-12T00:40:21.084Z,98956.50
2023-04-12T00:42:49.628Z,98955.69
2023-04-12T00:45:17.963Z,98951.81
2023-04-12T00:47:48.279Z,98957.91
2023-04-12T00:50:16.852Z,98960.25
2023-04-12T00:52:45.265Z,98959.09
2023-04-12T00:55:13.695Z,98953.78
2023-04-12T00:57:42.073Z,98963.53
2023-04-12T01:00:13.881Z,98961.03
2023-04-12T01:02:47.980Z,98958.84
2023-04-12T01:05:22.991Z,98949.91
2023-04-12T01:08:05.028Z,98945.88
2023-04-12T01:10:42.422Z,98954.84
2023-04-12T01:13:23.112Z,98946.16
2023-04-12T01:15:59.317Z,98954.97
2023-04-12T01:18:31.944Z,98951.25
2023-04-12T01:21:08.852Z,98959.41
2023-04-12T01:23:55.573Z,98951.41
2023-04-12T01:26:35.296Z,98941.88
2023-04-12T01:29:11.519Z,98944.63
2023-04-12T01:31:42.685Z,98947.44
2023-04-12T01:34:13.563Z,98949.63
2023-04-12T01:36:46.182Z,98941.19
2023-04-12T01:39:14.690Z,98948.09
2023-04-12T01:41:45.418Z,98932.25
2023-04-12T01:44:22.176Z,98933.63
2023-04-12T01:46:51.868Z,98921.41
2023-04-12T01:49:20.880Z,98930.06
2023-04-12T01:51:54.075Z,98921.59
2023-04-12T01:54:27.604Z,98929.16
2023-04-12T01:56:59.324Z,98926.28
2023-04-12T01:59:34.200Z,98932.41
2023-04-12T02:02:04.353Z,98928.50
2023-04-12T02:04:33.907Z,98936.72
2023-04-12T02:07:02.708Z,98937.16
2023-04-12T02:09:31.332Z,98929.84
2023-04-12T02:12:01.247Z,98932.59
2023-04-12T02:14:31.624Z,98940.59
2023-04-12T02:17:02.513Z,98930.13
2023-04-12T02:19:31.507Z,98943.25
2023-04-12T02:22:00.027Z,98935.59
2023-04-12T02:24:28.457Z,98936.50
2023-04-12T02:26:56.922Z,98931.94
2023-04-12T02:29:25.166Z,98936.50
2023-04-12T02:31:54.965Z,98940.25
2023-04-12T02:34:23.276Z,98941.84
2023-04-12T02:36:51.850Z,98939.81
2023-04-12T02:39:22.358Z,98938.78
2023-04-12T02:41:50.952Z,98938.72
2023-04-12T02:44:19.425Z,98941.25
2023-04-12T02:46:47.910Z,98934.81
2023-04-12T02:49:17.683Z,98927.31
2023-04-12T02:51:46.780Z,98925.75
2023-04-12T02:54:15.330Z,98918.19
2023-04-12T02:56:44.894Z,98927.72
2023-04-12T02:59:13.280Z,98918.78
2023-04-12T03:01:46.825Z,98918.03
2023-04-12T03:04:16.590Z,98912.38
2023-04-12T03:06:53.934Z,98923.03
2023-04-12T03:09:22.357Z,98923.94
2023-04-12T03:11:50.951Z,98920.53
2023-04-12T03:14:19.685Z,98933.84
2023-04-12T03:16:49.202Z,98930.84
2023-04-12T03:19:18.141Z,98938.84
2023-04-12T03:21:48.152Z,98927.56
2023-04-12T03:24:17.092Z,98923.38
2023-04-12T03:26:45.482Z,98927.13
2023-04-12T03:29:14.126Z,98928.06
2023-04-12T03:31:42.568Z,98931.03
2023-04-12T03:34:10.977Z,98934.59
2023-04-12T03:36:39.591Z,98923.22
2023-04-12T03:39:09.315Z,98925.88
2023-04-12T03:41:37.694Z,98928.38
2023-04-12T03:44:07.765Z,98927.56
2023-04-12T03:46:36.471Z,98927.84
2023-04-12T03:49:04.933Z,98918.47
2023-04-12T03:51:33.337Z,98920.38
2023-04-12T03:54:02.941Z,98928.81
2023-04-12T03:56:32.731Z,98928.75
2023-04-12T03:59:01.473Z,98926.44
2023-04-12T04:01:29.914Z,98926.28
2023-04-12T04:03:58.556Z,98926.28
2023-04-12T04:06:27.892Z,98927.63
2023-04-12T04:08:56.544Z,98913.53
2023-04-12T04:11:25.793Z,98920.75
2023-04-12T04:13:56.196Z,98918.31
2023-04-12T04:16:24.826Z,98928.13
2023-04-12T04:18:53.401Z,98925.88
2023-04-12T04:21:22.457Z,98929.34
2023-04-12T04:23:52.042Z,98910.31
2023-04-12T04:26:21.193Z,98936.44
2023-04-12T04:28:50.642Z,98935.75
2023-04-12T04:31:22.404Z,98939.63
2023-04-12T04:33:51.958Z,98938.19
2023-04-12T04:36:20.782Z,98940.22
2023-04-12T04:38:49.487Z,98938.69
2023-04-12T04:41:22.843Z,98939.38
2023-04-12T04:43:51.633Z,98939.13
2023-04-12T04:46:22.344Z,98923.31
2023-04-12T04:48:55.265Z,98927.19
2023-04-12T04:51:23.888Z,98935.22
2023-04-12T04:53:52.370Z,98933.97
2023-04-12T04:56:23.190Z,98937.84
2023-04-12T04:58:51.666Z,98929.94
2023-04-12T05:01:21.515Z,98941.44
2023-04-12T05:03:50.165Z,98932.16
2023-04-12T05:06:19.159Z,98931.69
2023-04-12T05:08:47.581Z,98937.19
2023-04-12T05:11:16.302Z,98949.34
2023-04-12T05:13:44.615Z,98947.22
2023-04-12T05:16:13.469Z,98946.34
2023-04-12T05:18:43.183Z,98945.31
2023-04-12T05:21:11.727Z,98945.34
2023-04-12T05:23:45.965Z,98946.09
2023-04-12T05:26:14.646Z,98950.69
2023-04-12T05:28:43.102Z,98946.56
2023-04-12T05:31:11.863Z,98949.69
2023-04-12T05:33:40.370Z,98939.19
2023-04-12T05:36:11.047Z,98939.97
2023-04-12T05:38:39.341Z,98946.31
2023-04-12T05:41:08.225Z,98956.38
2023-04-12T05:43:37.850Z,98949.00
2023-04-12T05:46:08.094Z,98946.47
2023-04-12T05:48:36.572Z,98950.13
2023-04-12T05:51:05.774Z,98942.66
2023-04-12T05:53:35.589Z,98942.66
2023-04-12T05:56:03.928Z,98937.41
2023-04-12T05:58:33.289Z,98932.84
2023-04-12T06:01:01.791Z,98936.97
2023-04-12T06:03:32.436Z,98933.09
2023-04-12T06:06:02.576Z,98932.28
2023-04-12T06:08:31.237Z,98927.81
2023-04-12T06:11:01.050Z,98925.03
2023-04-12T06:13:29.374Z,98924.16
2023-04-12T06:15:57.951Z,98941.88
2023-04-12T06:18:26.388Z,98948.91
2023-04-12T06:20:54.852Z,98954.25
2023-04-12T06:23:23.252Z,98953.81
2023-04-12T06:25:53.397Z,98953.13
2023-04-12T06:28:23.264Z,98961.91
2023-04-12T06:30:51.589Z,98949.53
2023-04-12T06:33:22.605Z,98957.00
2023-04-12T06:35:51.055Z,98950.25
2023-04-12T06:38:20.091Z,98952.25
2023-04-12T06:40:48.951Z,98953.53
2023-04-12T06:43:20.384Z,98952.66
2023-04-12T06:45:50.953Z,98963.22
2023-04-12T06:48:24.276Z,98961.00
2023-04-12T06:50:52.586Z,98957.53
2023-04-12T06:53:20.984Z,98969.56
2023-04-12T06:55:49.750Z,98974.06
2023-04-12T06:58:18.379Z,98971.53
2023-04-12T07:00:46.741Z,98970.22
2023-04-12T07:03:16.742Z,98966.97
2023-04-12T07:05:45.236Z,98970.06
2023-04-12T07:08:13.605Z,98980.81
2023-04-12T07:10:41.963Z,98982.00
2023-04-12T07:13:10.585Z,98974.06
2023-04-12T07:15:38.912Z,98973.38
2023-04-12T07:18:07.429Z,98988.31
2023-04-12T07:20:37.401Z,98986.94
2023-04-12T07:23:05.810Z,98983.56
2023-04-12T07:25:34.321Z,98994.91
2023-04-12T07:28:03.708Z,98980.56
2023-04-12T07:30:32.013Z,98982.19
2023-04-12T07:33:12.226Z,98977.50
2023-04-12T07:35:48.506Z,98974.75
2023-04-12T07:38:17.170Z,98981.16
2023-04-12T07:40:47.628Z,98985.75
2023-04-12T07:43:18.232Z,98990.69
2023-04-12T07:45:46.869Z,98984.03
2023-04-12T07:48:15.644Z,98982.78
2023-04-12T07:50:46.003Z,98985.03
2023-04-12T07:53:23.475Z,98985.97
2023-04-12T07:55:53.047Z,98995.84
2023-04-12T07:58:22.581Z,98992.44
2023-04-12T08:00:51.890Z,98989.72
2023-04-12T08:03:20.833Z,98996.91
2023-04-12T08:05:53.671Z,98988.94
2023-04-12T08:08:23.869Z,98981.22
2023-04-12T08:10:52.810Z,98984.44
2023-04-12T08:13:21.410Z,98975.16
2023-04-12T08:15:49.761Z,98971.53
2023-04-12T08:18:18.205Z,98968.13
2023-04-12T08:20:47.212Z,98974.88
2023-04-12T08:23:16.038Z,98981.47
2023-04-12T08:25:46.139Z,98981.41
2023-04-12T08:28:14.414Z,98979.69
2023-04-12T08:30:44.082Z,98974.63
2023-04-12T08:33:12.386Z,98991.44
2023-04-12T08:35:41.349Z,98982.94
2023-04-12T08:38:09.782Z,98967.94
2023-04-12T08:40:38.616Z,98975.75
2023-04-12T08:43:10.034Z,98982.44
2023-04-12T08:45:39.515Z,98983.94
2023-04-12T08:48:07.853Z,98987.91
2023-04-12T08:50:36.390Z,98983.91
2023-04-12T08:53:05.327Z,98991.09
2023-04-12T08:55:33.678Z,98990.25
2023-04-12T08:58:07.405Z,98996.56
2023-04-12T09:00:38.793Z,98993.34
2023-04-12T09:03:07.684Z,98988.16
2023-04-12T09:05:36.212Z,98991.69
2023-04-12T09:08:05.558Z,98985.78
2023-04-12T09:10:36.642Z,98983.72
2023-04-12T09:13:05.645Z,98990.22
2023-04-12T09:15:36.364Z,98989.50
2023-04-12T09:18:06.915Z,98992.44
2023-04-12T09:20:35.801Z,98980.47
2023-04-12T09:23:19.483Z,98983.94
2023-04-12T09:25:51.079Z,98995.41
2023-04-12T09:28:21.891Z,98990.31
2023-04-12T09:30:55.239Z,98989.53
2023-04-12T09:33:34.042Z,98997.78
2023-04-12T09:36:03.194Z,98997.19
2023-04-12T09:38:32.133Z,98993.44
2023-04-12T09:41:20.252Z,98987.47
2023-04-12T09:43:49.971Z,98992.16
2023-04-12T09:46:20.998Z,98990.19
2023-04-12T09:48:53.517Z,98999.56
2023-04-12T09:51:29.759Z,98997.06
2023-04-12T09:54:01.065Z,98999.34
2023-04-12T09:56:32.360Z,98994.50
2023-04-12T09:59:04.299Z,98996.81
2023-04-12T10:01:37.414Z,99004.16
2023-04-12T10:04:08.439Z,98999.47
2023-04-12T10:06:38.149Z,98997.22
2023-04-12T10:09:08.736Z,99001.19
2023-04-12T10:11:42.169Z,99001.72
2023-04-12T10:14:12.214Z,99006.75
2023-04-12T10:16:43.189Z,99006.66
2023-04-12T10:19:13.757Z,99005.31
2023-04-12T10:21:42.264Z,99010.38
2023-04-12T10:24:11.317Z,99004.16
2023-04-12T10:26:44.402Z,99015.09
2023-04-12T10:29:26.526Z,99004.69
2023-04-12T10:31:57.173Z,99011.56
2023-04-12T10:34:28.287Z,99018.00
2023-04-12T10:36:57.818Z,99021.69
2023-04-12T10:39:40.377Z,99015.63
2023-04-12T10:42:23.199Z,99008.88
2023-04-12T10:44:53.381Z,98995.13
2023-04-12T10:48:03.938Z,99001.44
2023-04-12T10:50:33.989Z,99002.50
2023-04-12T10:53:26.227Z,98999.81
2023-04-12T10:55:54.985Z,99000.25
2023-04-12T10:59:05.869Z,99006.00
2023-04-12T11:01:38.320Z,98993.00
2023-04-12T11:04:10.675Z,98998.84
2023-04-12T11:06:52.380Z,98999.91
2023-04-12T11:09:26.562Z,99008.63
2023-04-12T11:11:59.467Z,99014.03
2023-04-12T11:14:31.321Z,99016.06
2023-04-12T11:17:24.935Z,99010.28
2023-04-12T11:19:57.995Z,99012.97
2023-04-12T11:22:28.981Z,99016.00
2023-04-12T11:24:59.419Z,99012.06
2023-04-12T11:27:29.673Z,99007.28
2023-04-12T11:30:03.875Z,99006.56
2023-04-12T11:32:34.310Z,99017.06
2023-04-12T11:35:04.276Z,99017.53
2023-04-12T11:37:33.042Z,99017.16
2023-04-12T11:40:01.601Z,99020.28
2023-04-12T11:42:30.557Z,99017.59
2023-04-12T11:45:04.856Z,99013.50
2023-04-12T11:47:36.007Z,99008.97
2023-04-12T11:50:06.784Z,99001.44
2023-04-12T11:52:35.540Z,99004.13
2023-04-12T11:55:06.857Z,98991.34
2023-04-12T11:57:36.605Z,98997.91
2023-04-12T12:00:07.126Z,99006.28
2023-04-12T12:02:46.025Z,99003.50
2023-04-12T12:05:22.976Z,99004.69
2023-04-12T12:07:54.201Z,99010.06
2023-04-12T12:10:40.056Z,99032.50
2023-04-12T12:13:12.652Z,99019.31
2023-04-12T12:15:41.479Z,99032.25
2023-04-12T12:18:11.184Z,99023.56
2023-04-12T12:20:49.127Z,99022.97
2023-04-12T12:23:30.156Z,99028.00
2023-04-12T12:26:14.429Z,99036.34
2023-04-12T12:28:50.442Z,99024.75
2023-04-12T12:31:21.713Z,99039.72
2023-04-12T12:33:52.649Z,99055.06
2023-04-12T12:36:22.470Z,99035.75
2023-04-12T12:38:54.738Z,99050.50
2023-04-12T12:41:25.089Z,99054.91
2023-04-12T12:43:54.420Z,99068.66
2023-04-12T12:46:22.957Z,99056.25
2023-04-12T12:48:51.428Z,99070.88
2023-04-12T12:51:21.401Z,99067.25
2023-04-12T12:53:49.895Z,99068.75
2023-04-12T12:56:18.287Z,99075.44
2023-04-12T12:58:46.894Z,99063.22
2023-04-12T13:01:15.270Z,99061.09
2023-04-12T13:03:43.863Z,99057.66
2023-04-12T13:06:12.247Z,99065.41
2023-04-12T13:08:42.005Z,99079.22
2023-04-12T13:11:12.491Z,99066.16
2023-04-12T13:13:40.915Z,99071.81
2023-04-12T13:16:09.908Z,99077.22
2023-04-12T13:18:38.334Z,99079.78
2023-04-12T13:21:07.863Z,99068.81
2023-04-12T13:23:36.326Z,99074.28
2023-04-12T13:26:06.655Z,99071.34
2023-04-12T13:28:35.020Z,99079.16
2023-04-12T13:31:03.629Z,99082.13
2023-04-12T13:33:32.029Z,99092.72
2023-04-12T13:36:00.501Z,99097.09
2023-04-12T13:38:28.845Z,99088.63
2023-04-12T13:40:57.700Z,99100.34
2023-04-12T13:43:27.422Z,99104.94
2023-04-12T13:45:56.178Z,99104.91
2023-04-12T13:48:24.779Z,99116.28
2023-04-12T13:50:55.056Z,99106.44
2023-04-12T13:53:23.986Z,99108.94
2023-04-12T13:55:52.398Z,99114.50
2023-04-12T13:58:20.811Z,99097.09
2023-04-12T14:00:50.847Z,99103.59
2023-04-12T14:03:19.288Z,99110.13
2023-04-12T14:05:47.657Z,99113.28
2023-04-12T14:08:16.010Z,99106.69
2023-04-12T14:10:45.020Z,99116.63
2023-04-12T14:13:14.522Z,99114.75
2023-04-12T14:15:42.824Z,99124.66
2023-04-12T14:18:12.715Z,99113.94
2023-04-12T14:20:41.573Z,99127.44
2023-04-12T14:23:10.013Z,99125.75
2023-04-12T14:25:40.900Z,99120.06
2023-04-12T14:28:09.214Z,99133.03
2023-04-12T14:30:37.782Z,99125.84
2023-04-12T14:33:12.883Z,99138.47
2023-04-12T14:35:41.335Z,99145.50
2023-04-12T14:38:09.704Z,99152.09
2023-04-12T14:40:38.380Z,99154.44
2023-04-12T14:43:07.759Z,99161.56
2023-04-12T14:45:38.532Z,99167.56
2023-04-12T14:48:07.107Z,99173.16
2023-04-12T14:50:38.079Z,99169.59
2023-04-12T14:53:06.403Z,99168.47
2023-04-12T14:55:34.936Z,99179.38
2023-04-12T14:58:03.828Z,99178.84
2023-04-12T15:00:32.219Z,99173.63
2023-04-12T15:03:00.988Z,99177.63
2023-04-12T15:05:29.513Z,99183.22
2023-04-12T15:07:59.269Z,99179.88
2023-04-12T15:10:28.133Z,99174.97
2023-04-12T15:12:58.156Z,99189.22
2023-04-12T15:15:26.671Z,99174.28
2023-04-12T15:17:55.017Z,99184.41
2023-04-12T15:20:23.456Z,99194.34
2023-04-12T15:22:51.829Z,99194.78
2023-04-12T15:25:22.193Z,99200.09
2023-04-12T15:27:50.942Z,99200.56
2023-04-12T15:30:19.222Z,99197.56
2023-04-12T15:32:47.706Z,99202.13
2023-04-12T15:35:26.178Z,99201.00
2023-04-12T15:37:55.755Z,99216.63
2023-04-12T15:40:25.999Z,99211.69
2023-04-12T15:42:54.475Z,99218.59
2023-04-12T15:45:23.051Z,99212.00
2023-04-12T15:47:51.440Z,99218.91
2023-04-12T15:50:20.143Z,99219.38
2023-04-12T15:52:48.988Z,99220.81
2023-04-12T15:55:20.480Z,99217.00
2023-04-12T15:57:50.168Z,99214.22
2023-04-12T16:00:24.631Z,99222.00
2023-04-12T16:02:55.025Z,99218.75
2023-04-12T16:05:24.888Z,99221.44
2023-04-12T16:07:53.215Z,99217.38
2023-04-12T16:10:22.875Z,99227.16
2023-04-12T16:12:54.836Z,99219.72
2023-04-12T16:15:23.508Z,99212.22
2023-04-12T16:17:54.524Z,99218.38
2023-04-12T16:20:23.663Z,99229.50
2023-04-12T16:22:57.821Z,99227.69
2023-04-12T16:25:28.557Z,99246.28
2023-04-12T16:28:02.388Z,99241.78
2023-04-12T16:30:30.867Z,99242.88
2023-04-12T16:32:59.531Z,99237.75
2023-04-12T16:35:28.032Z,99241.06
2023-04-12T16:37:56.585Z,99250.31
2023-04-12T16:40:25.986Z,99253.34
2023-04-12T16:42:54.457Z,99252.91
2023-04-12T16:45:24.976Z,99249.25
2023-04-12T16:47:54.936Z,99253.78
2023-04-12T16:50:24.402Z,99258.44
2023-04-12T16:52:52.971Z,99272.72
2023-04-12T16:55:21.477Z,99269.47
2023-04-12T16:57:53.215Z,99274.81
2023-04-12T17:00:25.407Z,99271.22
2023-04-12T17:02:55.182Z,99268.28
2023-04-12T17:05:24.872Z,99279.94
2023-04-12T17:07:55.702Z,99295.06
2023-04-12T17:10:25.301Z,99292.50
2023-04-12T17:12:56.707Z,99293.91
2023-04-12T17:15:28.470Z,99300.50
2023-04-12T17:18:03.485Z,99298.28
2023-04-12T17:20:32.419Z,99301.31
2023-04-12T17:23:01.606Z,99295.19
2023-04-12T17:25:31.455Z,99302.84
2023-04-12T17:28:00.633Z,99304.28
2023-04-12T17:30:30.867Z,99303.50
2023-04-12T17:33:01.357Z,99307.59
2023-04-12T17:35:30.555Z,99305.25
2023-04-12T17:37:58.855Z,99325.53
2023-04-12T17:40:27.311Z,99330.44
2023-04-12T17:42:56.161Z,99326.03
2023-04-12T17:45:24.768Z,99329.66
2023-04-12T17:47:54.861Z,99318.34
2023-04-12T17:50:23.590Z,99322.88
2023-04-12T17:52:51.945Z,99329.03
2023-04-12T17:55:23.609Z,99331.72
2023-04-12T17:57:52.591Z,99340.50
2023-04-12T18:00:23.453Z,99348.38
2023-04-12T18:02:52.015Z,99348.50
2023-04-12T18:05:22.022Z,99343.78
2023-04-12T18:07:50.470Z,99345.94
2023-04-12T18:10:21.643Z,99342.59
2023-04-12T18:12:50.305Z,99343.38
2023-04-12T18:15:19.272Z,99341.94
2023-04-12T18:17:47.712Z,99332.69
2023-04-12T18:20:16.724Z,99331.09
2023-04-12T18:22:46.584Z,99334.56
2023-04-12T18:25:14.981Z,99333.31
2023-04-12T18:27:43.446Z,99341.97
2023-04-12T18:30:12.387Z,99331.59
2023-04-12T18:32:40.865Z,99330.53
2023-04-12T18:35:10.131Z,99335.25
2023-04-12T18:37:38.482Z,99337.59
2023-04-12T18:40:10.086Z,99364.16
2023-04-12T18:42:39.646Z,99351.13
2023-04-12T18:45:09.659Z,99361.31
2023-04-12T18:47:39.201Z,99359.91
2023-04-12T18:50:08.880Z,99358.47
2023-04-12T18:52:37.703Z,99363.81
2023-04-12T18:55:08.832Z,99361.78
2023-04-12T18:57:37.230Z,99364.00
2023-04-12T19:00:10.589Z,99365.25
2023-04-12T19:02:39.080Z,99360.03
2023-04-12T19:05:09.031Z,99366.97
2023-04-12T19:07:37.476Z,99364.94
2023-04-12T19:10:08.613Z,99355.66
2023-04-12T19:12:37.100Z,99355.97
2023-04-12T19:15:07.142Z,99349.00
2023-04-12T19:17:38.849Z,99344.56
2023-04-12T19:20:09.001Z,99349.59
2023-04-12T19:22:37.581Z,99340.47
2023-04-12T19:25:08.531Z,99343.31
2023-04-12T19:27:37.216Z,99362.00
2023-04-12T19:30:06.406Z,99349.44
2023-04-12T19:32:34.845Z,99345.16
2023-04-12T19:35:06.956Z,99355.53
2023-04-12T19:37:35.403Z,99351.81
2023-04-12T19:40:04.171Z,99347.69
2023-04-12T19:42:33.991Z,99340.56
2023-04-12T19:45:02.689Z,99340.56
2023-04-12T19:47:33.757Z,99350.50
2023-04-12T19:50:02.619Z,99347.19
2023-04-12T19:52:30.947Z,99344.03
2023-04-12T19:55:01.816Z,99347.28
2023-04-12T19:57:30.470Z,99346.84
2023-04-12T20:00:00.432Z,99338.50
2023-04-12T20:02:29.415Z,99349.38
2023-04-12T20:04:57.830Z,99349.19
2023-04-12T20:07:26.123Z,99347.38
2023-04-12T20:09:54.580Z,99356.94
2023-04-12T20:12:22.894Z,99353.81
2023-04-12T20:14:51.320Z,99357.41
2023-04-12T20:17:22.268Z,99349.84
2023-04-12T20:19:55.344Z,99360.09
2023-04-12T20:22:24.424Z,99374.41
2023-04-12T20:24:54.120Z,99367.16
2023-04-12T20:27:23.140Z,99373.03
2023-04-12T20:29:52.043Z,99372.53
2023-04-12T20:32:23.548Z,99378.22
2023-04-12T20:34:52.147Z,99383.56
2023-04-12T20:37:20.597Z,99383.25
2023-04-12T20:39:50.039Z,99374.44
2023-04-12T20:42:20.637Z,99386.69
2023-04-12T20:44:49.325Z,99380.44
2023-04-12T20:47:19.880Z,99380.44
2023-04-12T20:49:56.269Z,99379.97
2023-04-12T20:52:25.497Z,99385.31
2023-04-12T20:54:54.770Z,99382.47
2023-04-12T20:57:23.902Z,99384.03
2023-04-12T20:59:52.731Z,99376.00
2023-04-12T21:05:08.692Z,99389.06
2023-04-12T21:07:37.708Z,99404.50
2023-04-12T21:10:07.133Z,99402.72
2023-04-12T21:12:36.706Z,99404.00
2023-04-12T21:15:06.285Z,99412.34
2023-04-12T21:17:35.547Z,99411.44
2023-04-12T21:20:13.927Z,99408.44
2023-04-12T21:22:47.019Z,99410.50
2023-04-12T21:25:17.399Z,99402.63
2023-04-12T21:27:47.878Z,99410.63
2023-04-12T21:30:16.548Z,99412.22
2023-04-12T21:32:44.959Z,99411.59
2023-04-12T21:35:18.584Z,99417.88
2023-04-12T21:37:48.714Z,99415.06
2023-04-12T21:40:17.266Z,99424.66
2023-04-12T21:42:46.003Z,99435.19
2023-04-12T21:45:14.851Z,99433.00
2023-04-12T21:47:44.194Z,99434.88
2023-04-12T21:50:14.042Z,99438.03
2023-04-12T21:52:44.302Z,99434.88
2023-04-12T21:55:14.694Z,99438.34
2023-04-12T21:57:42.995Z,99431.91
2023-04-12T22:00:12.503Z,99432.84
2023-04-12T22:02:41.087Z,99432.72
2023-04-12T22:05:09.971Z,99440.25
2023-04-12T22:07:41.627Z,99429.56
2023-04-12T22:10:12.250Z,99442.63
2023-04-12T22:12:42.424Z,99439.16
2023-04-12T22:15:13.677Z,99435.53
2023-04-12T22:17:42.079Z,99442.91
2023-04-12T22:20:11.250Z,99420.59
2023-04-12T22:22:39.943Z,99424.22
2023-04-12T22:25:12.173Z,99419.03
2023-04-12T22:27:42.269Z,99416.81
2023-04-12T22:30:11.928Z,99419.19
2023-04-12T22:32:40.488Z,99416.31
2023-04-12T22:35:10.324Z,99402.16
2023-04-12T22:37:41.363Z,99415.34
2023-04-12T22:40:13.856Z,99420.22
2023-04-12T22:42:47.614Z,99413.44
2023-04-12T22:45:16.715Z,99413.44
2023-04-12T22:47:45.665Z,99422.38
2023-04-12T22:50:14.442Z,99421.09
2023-04-12T22:52:42.834Z,99426.00
2023-04-12T22:55:14.035Z,99421.41
2023-04-12T22:57:43.768Z,99431.16
2023-04-12T23:00:17.159Z,99431.16
2023-04-12T23:02:47.785Z,99432.72
2023-04-12T23:05:16.700Z,99432.91
2023-04-12T23:07:45.410Z,99441.41
2023-04-12T23:10:13.786Z,99445.81
2023-04-12T23:12:43.608Z,99429.63
2023-04-12T23:15:12.822Z,99430.09
2023-04-12T23:17:41.213Z,99433.25
2023-04-12T23:20:13.308Z,99427.91
2023-04-12T23:22:57.552Z,99423.84
2023-04-12T23:25:38.087Z,99428.13
2023-04-12T23:28:12.508Z,99420.56
2023-04-12T23:30:43.049Z,99427.50
2023-04-12T23:33:12.050Z,99433.63
2023-04-12T23:35:41.792Z,99436.16
2023-04-12T23:38:10.868Z,99453.00
2023-04-12T23:40:39.188Z,99437.13
2023-04-12T23:43:09.087Z,99438.38
2023-04-12T23:45:38.172Z,99438.22
2023-04-12T23:48:07.228Z,99439.78
2023-04-12T23:50:35.798Z,99442.94
2023-04-12T23:53:04.114Z,99436.81
2023-04-12T23:55:32.436Z,99436.63
2023-04-12T23:58:00.927Z,99454.88
